sensor_id;sensor_type;location;lat;lon;timestamp;P1;durP1;ratioP1;P2;durP2;ratioP2
7330;SDS011;3706;49.198;7.064;2024-01-27T00:00:19;9.93;;;4.53;;
7330;SDS011;3706;49.198;7.064;2024-01-27T00:02:46;14.30;;;5.87;;
7330;SDS011;3706;49.198;7.064;2024-01-27T00:05:14;10.27;;;5.60;;
7330;SDS011;3706;49.198;7.064;2024-01-27T00:07:42;8.63;;;5.60;;
7330;SDS011;3706;49.198;7.064;2024-01-27T00:10:09;7.53;;;4.90;;
7330;SDS011;3706;49.198;7.064;2024-01-27T00:12:39;12.43;;;5.27;;
7330;SDS011;3706;49.198;7.064;2024-01-27T00:15:08;15.93;;;5.50;;
7330;SDS011;3706;49.198;7.064;2024-01-27T00:17:35;11.23;;;5.57;;
7330;SDS011;3706;49.198;7.064;2024-01-27T00:20:06;14.50;;;5.37;;
7330;SDS011;3706;49.198;7.064;2024-01-27T00:22:33;7.30;;;4.77;;
7330;SDS011;3706;49.198;7.064;2024-01-27T00:25:01;12.27;;;5.50;;
7330;SDS011;3706;49.198;7.064;2024-01-27T00:27:28;11.73;;;5.40;;
7330;SDS011;3706;49.198;7.064;2024-01-27T00:29:58;16.23;;;5.10;;
7330;SDS011;3706;49.198;7.064;2024-01-27T00:32:25;9.13;;;4.50;;
7330;SDS011;3706;49.198;7.064;2024-01-27T00:34:52;13.50;;;4.57;;
7330;SDS011;3706;49.198;7.064;2024-01-27T00:37:20;8.37;;;4.87;;
7330;SDS011;3706;49.198;7.064;2024-01-27T00:39:47;12.60;;;4.93;;
7330;SDS011;3706;49.198;7.064;2024-01-27T00:42:14;10.07;;;5.40;;
7330;SDS011;3706;49.198;7.064;2024-01-27T00:44:43;11.43;;;5.10;;
7330;SDS011;3706;49.198;7.064;2024-01-27T00:47:15;8.90;;;4.57;;
7330;SDS011;3706;49.198;7.064;2024-01-27T00:49:42;8.50;;;4.70;;
7330;SDS011;3706;49.198;7.064;2024-01-27T00:52:10;13.57;;;5.60;;
7330;SDS011;3706;49.198;7.064;2024-01-27T00:54:37;5.90;;;3.90;;
7330;SDS011;3706;49.198;7.064;2024-01-27T00:57:05;10.10;;;5.07;;
7330;SDS011;3706;49.198;7.064;2024-01-27T00:59:32;10.77;;;4.33;;
7330;SDS011;3706;49.198;7.064;2024-01-27T01:02:00;16.00;;;5.43;;
7330;SDS011;3706;49.198;7.064;2024-01-27T01:04:28;5.57;;;4.10;;
7330;SDS011;3706;49.198;7.064;2024-01-27T01:06:56;6.07;;;3.27;;
7330;SDS011;3706;49.198;7.064;2024-01-27T01:09:23;10.23;;;4.90;;
7330;SDS011;3706;49.198;7.064;2024-01-27T01:11:50;6.87;;;4.20;;
7330;SDS011;3706;49.198;7.064;2024-01-27T01:14:17;9.30;;;5.23;;
7330;SDS011;3706;49.198;7.064;2024-01-27T01:16:45;14.20;;;5.17;;
7330;SDS011;3706;49.198;7.064;2024-01-27T01:19:12;17.90;;;6.80;;
7330;SDS011;3706;49.198;7.064;2024-01-27T01:21:40;12.77;;;6.33;;
7330;SDS011;3706;49.198;7.064;2024-01-27T01:24:08;13.93;;;4.67;;
7330;SDS011;3706;49.198;7.064;2024-01-27T01:26:35;13.63;;;4.67;;
7330;SDS011;3706;49.198;7.064;2024-01-27T01:29:02;11.23;;;5.03;;
7330;SDS011;3706;49.198;7.064;2024-01-27T01:31:30;8.97;;;4.73;;
7330;SDS011;3706;49.198;7.064;2024-01-27T01:33:57;11.60;;;4.70;;
7330;SDS011;3706;49.198;7.064;2024-01-27T01:36:24;12.57;;;4.87;;
7330;SDS011;3706;49.198;7.064;2024-01-27T01:38:52;14.50;;;4.80;;
7330;SDS011;3706;49.198;7.064;2024-01-27T01:41:19;7.37;;;4.40;;
7330;SDS011;3706;49.198;7.064;2024-01-27T01:43:47;14.77;;;4.87;;
7330;SDS011;3706;49.198;7.064;2024-01-27T01:46:14;11.00;;;5.53;;
7330;SDS011;3706;49.198;7.064;2024-01-27T01:48:41;15.37;;;6.00;;
7330;SDS011;3706;49.198;7.064;2024-01-27T01:51:09;10.07;;;4.57;;
7330;SDS011;3706;49.198;7.064;2024-01-27T01:53:36;9.70;;;5.20;;
7330;SDS011;3706;49.198;7.064;2024-01-27T01:56:06;7.17;;;4.00;;
7330;SDS011;3706;49.198;7.064;2024-01-27T01:58:34;9.60;;;4.43;;
7330;SDS011;3706;49.198;7.064;2024-01-27T02:01:01;11.63;;;4.17;;
7330;SDS011;3706;49.198;7.064;2024-01-27T02:03:28;14.33;;;5.00;;
7330;SDS011;3706;49.198;7.064;2024-01-27T02:05:55;11.77;;;4.10;;
7330;SDS011;3706;49.198;7.064;2024-01-27T02:08:23;7.53;;;4.10;;
7330;SDS011;3706;49.198;7.064;2024-01-27T02:10:50;7.53;;;4.20;;
7330;SDS011;3706;49.198;7.064;2024-01-27T02:13:19;9.50;;;3.83;;
7330;SDS011;3706;49.198;7.064;2024-01-27T02:15:48;10.93;;;4.90;;
7330;SDS011;3706;49.198;7.064;2024-01-27T02:18:16;8.67;;;4.23;;
7330;SDS011;3706;49.198;7.064;2024-01-27T02:20:44;8.93;;;4.90;;
7330;SDS011;3706;49.198;7.064;2024-01-27T02:23:11;13.63;;;5.60;;
7330;SDS011;3706;49.198;7.064;2024-01-27T02:25:40;9.33;;;4.47;;
7330;SDS011;3706;49.198;7.064;2024-01-27T02:28:07;11.30;;;4.60;;
7330;SDS011;3706;49.198;7.064;2024-01-27T02:30:35;11.03;;;4.30;;
7330;SDS011;3706;49.198;7.064;2024-01-27T02:33:02;10.27;;;4.70;;
7330;SDS011;3706;49.198;7.064;2024-01-27T02:35:31;12.90;;;4.60;;
7330;SDS011;3706;49.198;7.064;2024-01-27T02:37:58;14.37;;;4.87;;
7330;SDS011;3706;49.198;7.064;2024-01-27T02:40:27;9.90;;;3.70;;
7330;SDS011;3706;49.198;7.064;2024-01-27T02:42:56;11.00;;;4.67;;
7330;SDS011;3706;49.198;7.064;2024-01-27T02:45:23;11.83;;;4.43;;
7330;SDS011;3706;49.198;7.064;2024-01-27T02:47:53;10.47;;;5.00;;
7330;SDS011;3706;49.198;7.064;2024-01-27T02:50:21;8.77;;;3.60;;
7330;SDS011;3706;49.198;7.064;2024-01-27T02:52:48;10.00;;;4.63;;
7330;SDS011;3706;49.198;7.064;2024-01-27T02:55:16;11.80;;;4.20;;
7330;SDS011;3706;49.198;7.064;2024-01-27T02:57:46;16.13;;;4.50;;
7330;SDS011;3706;49.198;7.064;2024-01-27T03:00:15;6.37;;;3.97;;
7330;SDS011;3706;49.198;7.064;2024-01-27T03:02:42;11.13;;;4.80;;
7330;SDS011;3706;49.198;7.064;2024-01-27T03:05:13;12.30;;;4.87;;
7330;SDS011;3706;49.198;7.064;2024-01-27T03:07:45;10.13;;;4.30;;
7330;SDS011;3706;49.198;7.064;2024-01-27T03:10:14;13.37;;;4.33;;
7330;SDS011;3706;49.198;7.064;2024-01-27T03:12:53;7.77;;;4.17;;
7330;SDS011;3706;49.198;7.064;2024-01-27T03:15:43;11.47;;;4.00;;
7330;SDS011;3706;49.198;7.064;2024-01-27T03:18:11;10.30;;;4.57;;
7330;SDS011;3706;49.198;7.064;2024-01-27T03:20:38;8.33;;;4.50;;
7330;SDS011;3706;49.198;7.064;2024-01-27T03:23:05;7.90;;;3.97;;
7330;SDS011;3706;49.198;7.064;2024-01-27T03:25:33;9.83;;;4.33;;
7330;SDS011;3706;49.198;7.064;2024-01-27T03:28:00;10.87;;;4.57;;
7330;SDS011;3706;49.198;7.064;2024-01-27T03:30:28;9.57;;;4.77;;
7330;SDS011;3706;49.198;7.064;2024-01-27T03:33:00;8.23;;;4.60;;
7330;SDS011;3706;49.198;7.064;2024-01-27T03:35:27;11.83;;;4.40;;
7330;SDS011;3706;49.198;7.064;2024-01-27T03:37:57;13.30;;;4.80;;
7330;SDS011;3706;49.198;7.064;2024-01-27T03:40:25;9.77;;;5.13;;
7330;SDS011;3706;49.198;7.064;2024-01-27T03:42:52;8.80;;;3.97;;
7330;SDS011;3706;49.198;7.064;2024-01-27T03:45:19;10.03;;;4.40;;
7330;SDS011;3706;49.198;7.064;2024-01-27T03:47:47;9.13;;;4.37;;
7330;SDS011;3706;49.198;7.064;2024-01-27T03:50:16;9.03;;;4.10;;
7330;SDS011;3706;49.198;7.064;2024-01-27T03:52:48;10.07;;;4.10;;
7330;SDS011;3706;49.198;7.064;2024-01-27T03:55:15;11.10;;;4.13;;
7330;SDS011;3706;49.198;7.064;2024-01-27T03:57:43;10.07;;;4.17;;
7330;SDS011;3706;49.198;7.064;2024-01-27T04:00:11;11.27;;;4.60;;
7330;SDS011;3706;49.198;7.064;2024-01-27T04:02:39;13.90;;;5.00;;
7330;SDS011;3706;49.198;7.064;2024-01-27T04:05:06;12.93;;;5.27;;
7330;SDS011;3706;49.198;7.064;2024-01-27T04:07:35;10.97;;;5.73;;
7330;SDS011;3706;49.198;7.064;2024-01-27T04:10:03;9.77;;;4.53;;
7330;SDS011;3706;49.198;7.064;2024-01-27T04:12:33;7.00;;;3.90;;
7330;SDS011;3706;49.198;7.064;2024-01-27T04:15:01;8.03;;;4.43;;
7330;SDS011;3706;49.198;7.064;2024-01-27T04:17:29;7.20;;;3.97;;
7330;SDS011;3706;49.198;7.064;2024-01-27T04:19:58;7.87;;;4.13;;
7330;SDS011;3706;49.198;7.064;2024-01-27T04:22:25;11.37;;;4.40;;
7330;SDS011;3706;49.198;7.064;2024-01-27T04:24:58;7.93;;;3.83;;
7330;SDS011;3706;49.198;7.064;2024-01-27T04:27:26;12.80;;;5.17;;
7330;SDS011;3706;49.198;7.064;2024-01-27T04:29:59;11.87;;;4.87;;
7330;SDS011;3706;49.198;7.064;2024-01-27T04:32:29;11.17;;;5.00;;
7330;SDS011;3706;49.198;7.064;2024-01-27T04:34:56;10.40;;;4.63;;
7330;SDS011;3706;49.198;7.064;2024-01-27T04:37:29;9.80;;;4.40;;
7330;SDS011;3706;49.198;7.064;2024-01-27T04:39:58;15.33;;;5.13;;
7330;SDS011;3706;49.198;7.064;2024-01-27T04:42:28;8.60;;;5.47;;
7330;SDS011;3706;49.198;7.064;2024-01-27T04:45:07;9.90;;;4.97;;
7330;SDS011;3706;49.198;7.064;2024-01-27T04:47:43;12.07;;;4.80;;
7330;SDS011;3706;49.198;7.064;2024-01-27T04:50:13;10.17;;;4.47;;
7330;SDS011;3706;49.198;7.064;2024-01-27T04:52:43;11.83;;;4.73;;
7330;SDS011;3706;49.198;7.064;2024-01-27T04:55:13;12.80;;;6.10;;
7330;SDS011;3706;49.198;7.064;2024-01-27T04:57:41;10.53;;;5.30;;
7330;SDS011;3706;49.198;7.064;2024-01-27T05:00:08;11.47;;;5.37;;
7330;SDS011;3706;49.198;7.064;2024-01-27T05:02:38;9.67;;;5.33;;
7330;SDS011;3706;49.198;7.064;2024-01-27T05:05:08;11.90;;;5.77;;
7330;SDS011;3706;49.198;7.064;2024-01-27T05:07:37;11.77;;;4.80;;
7330;SDS011;3706;49.198;7.064;2024-01-27T05:10:04;18.47;;;6.67;;
7330;SDS011;3706;49.198;7.064;2024-01-27T05:12:37;11.70;;;5.50;;
7330;SDS011;3706;49.198;7.064;2024-01-27T05:15:05;11.40;;;5.97;;
7330;SDS011;3706;49.198;7.064;2024-01-27T05:17:33;13.47;;;6.27;;
7330;SDS011;3706;49.198;7.064;2024-01-27T05:20:04;15.33;;;4.90;;
7330;SDS011;3706;49.198;7.064;2024-01-27T05:22:33;9.67;;;4.80;;
7330;SDS011;3706;49.198;7.064;2024-01-27T05:25:01;12.70;;;5.20;;
7330;SDS011;3706;49.198;7.064;2024-01-27T05:27:29;8.43;;;5.17;;
7330;SDS011;3706;49.198;7.064;2024-01-27T05:29:59;12.77;;;4.97;;
7330;SDS011;3706;49.198;7.064;2024-01-27T05:32:27;10.20;;;5.00;;
7330;SDS011;3706;49.198;7.064;2024-01-27T05:34:58;12.53;;;5.63;;
7330;SDS011;3706;49.198;7.064;2024-01-27T05:37:30;12.20;;;4.73;;
7330;SDS011;3706;49.198;7.064;2024-01-27T05:39:57;14.17;;;5.30;;
7330;SDS011;3706;49.198;7.064;2024-01-27T05:42:27;9.37;;;4.97;;
7330;SDS011;3706;49.198;7.064;2024-01-27T05:44:57;15.40;;;5.07;;
7330;SDS011;3706;49.198;7.064;2024-01-27T05:47:26;11.20;;;5.50;;
7330;SDS011;3706;49.198;7.064;2024-01-27T05:49:54;13.23;;;5.90;;
7330;SDS011;3706;49.198;7.064;2024-01-27T05:52:23;17.93;;;6.53;;
7330;SDS011;3706;49.198;7.064;2024-01-27T05:54:53;10.53;;;6.07;;
7330;SDS011;3706;49.198;7.064;2024-01-27T05:57:21;9.00;;;4.90;;
7330;SDS011;3706;49.198;7.064;2024-01-27T05:59:49;8.10;;;3.83;;
7330;SDS011;3706;49.198;7.064;2024-01-27T06:02:17;11.40;;;4.67;;
7330;SDS011;3706;49.198;7.064;2024-01-27T06:04:45;10.10;;;4.43;;
7330;SDS011;3706;49.198;7.064;2024-01-27T06:07:13;10.37;;;5.60;;
7330;SDS011;3706;49.198;7.064;2024-01-27T06:09:40;12.60;;;6.20;;
7330;SDS011;3706;49.198;7.064;2024-01-27T06:12:08;11.37;;;5.27;;
7330;SDS011;3706;49.198;7.064;2024-01-27T06:14:35;18.97;;;6.47;;
7330;SDS011;3706;49.198;7.064;2024-01-27T06:17:03;14.27;;;5.47;;
7330;SDS011;3706;49.198;7.064;2024-01-27T06:19:34;16.97;;;5.47;;
7330;SDS011;3706;49.198;7.064;2024-01-27T06:22:02;9.47;;;4.53;;
7330;SDS011;3706;49.198;7.064;2024-01-27T06:24:29;13.70;;;5.37;;
7330;SDS011;3706;49.198;7.064;2024-01-27T06:26:59;11.37;;;4.90;;
7330;SDS011;3706;49.198;7.064;2024-01-27T06:29:26;11.37;;;4.93;;
7330;SDS011;3706;49.198;7.064;2024-01-27T06:31:54;9.60;;;4.77;;
7330;SDS011;3706;49.198;7.064;2024-01-27T06:34:21;13.87;;;6.03;;
7330;SDS011;3706;49.198;7.064;2024-01-27T06:36:50;13.40;;;5.90;;
7330;SDS011;3706;49.198;7.064;2024-01-27T06:39:20;12.53;;;4.17;;
7330;SDS011;3706;49.198;7.064;2024-01-27T06:41:49;11.57;;;6.17;;
7330;SDS011;3706;49.198;7.064;2024-01-27T06:44:16;11.67;;;6.03;;
7330;SDS011;3706;49.198;7.064;2024-01-27T06:46:43;10.80;;;5.17;;
7330;SDS011;3706;49.198;7.064;2024-01-27T06:49:15;14.43;;;5.70;;
7330;SDS011;3706;49.198;7.064;2024-01-27T06:51:45;10.60;;;4.13;;
7330;SDS011;3706;49.198;7.064;2024-01-27T06:54:14;16.07;;;6.63;;
7330;SDS011;3706;49.198;7.064;2024-01-27T06:56:42;13.77;;;5.47;;
7330;SDS011;3706;49.198;7.064;2024-01-27T06:59:11;15.10;;;5.87;;
7330;SDS011;3706;49.198;7.064;2024-01-27T07:01:38;16.67;;;6.40;;
7330;SDS011;3706;49.198;7.064;2024-01-27T07:04:11;9.20;;;5.23;;
7330;SDS011;3706;49.198;7.064;2024-01-27T07:06:38;13.13;;;5.40;;
7330;SDS011;3706;49.198;7.064;2024-01-27T07:09:06;12.83;;;5.43;;
7330;SDS011;3706;49.198;7.064;2024-01-27T07:11:35;11.47;;;5.17;;
7330;SDS011;3706;49.198;7.064;2024-01-27T07:14:03;15.33;;;5.30;;
7330;SDS011;3706;49.198;7.064;2024-01-27T07:16:31;11.73;;;5.90;;
7330;SDS011;3706;49.198;7.064;2024-01-27T07:19:00;14.90;;;6.17;;
7330;SDS011;3706;49.198;7.064;2024-01-27T07:21:27;25.60;;;8.17;;
7330;SDS011;3706;49.198;7.064;2024-01-27T07:23:56;21.60;;;7.50;;
7330;SDS011;3706;49.198;7.064;2024-01-27T07:26:26;17.53;;;6.50;;
7330;SDS011;3706;49.198;7.064;2024-01-27T07:28:58;13.93;;;5.57;;
7330;SDS011;3706;49.198;7.064;2024-01-27T07:31:27;13.73;;;5.77;;
7330;SDS011;3706;49.198;7.064;2024-01-27T07:33:56;14.07;;;6.77;;
7330;SDS011;3706;49.198;7.064;2024-01-27T07:36:23;11.97;;;5.50;;
7330;SDS011;3706;49.198;7.064;2024-01-27T07:38:56;10.97;;;5.00;;
7330;SDS011;3706;49.198;7.064;2024-01-27T07:41:23;15.93;;;6.70;;
7330;SDS011;3706;49.198;7.064;2024-01-27T07:43:50;14.37;;;7.33;;
7330;SDS011;3706;49.198;7.064;2024-01-27T07:46:19;13.80;;;5.80;;
7330;SDS011;3706;49.198;7.064;2024-01-27T07:48:48;9.80;;;5.17;;
7330;SDS011;3706;49.198;7.064;2024-01-27T07:51:15;12.07;;;6.13;;
7330;SDS011;3706;49.198;7.064;2024-01-27T07:53:43;15.17;;;6.50;;
7330;SDS011;3706;49.198;7.064;2024-01-27T07:56:11;14.67;;;6.47;;
7330;SDS011;3706;49.198;7.064;2024-01-27T07:58:38;15.83;;;7.00;;
7330;SDS011;3706;49.198;7.064;2024-01-27T08:01:05;42.13;;;8.43;;
7330;SDS011;3706;49.198;7.064;2024-01-27T08:03:34;12.77;;;7.23;;
7330;SDS011;3706;49.198;7.064;2024-01-27T08:06:04;15.17;;;7.37;;
7330;SDS011;3706;49.198;7.064;2024-01-27T08:08:36;14.90;;;6.20;;
7330;SDS011;3706;49.198;7.064;2024-01-27T08:11:03;17.30;;;7.87;;
7330;SDS011;3706;49.198;7.064;2024-01-27T08:13:31;19.27;;;7.83;;
7330;SDS011;3706;49.198;7.064;2024-01-27T08:15:58;15.23;;;7.23;;
7330;SDS011;3706;49.198;7.064;2024-01-27T08:18:25;13.77;;;6.77;;
7330;SDS011;3706;49.198;7.064;2024-01-27T08:20:54;12.47;;;7.73;;
7330;SDS011;3706;49.198;7.064;2024-01-27T08:23:21;17.53;;;8.30;;
7330;SDS011;3706;49.198;7.064;2024-01-27T08:25:49;18.40;;;9.00;;
7330;SDS011;3706;49.198;7.064;2024-01-27T08:28:17;13.73;;;7.87;;
7330;SDS011;3706;49.198;7.064;2024-01-27T08:30:45;20.80;;;7.87;;
7330;SDS011;3706;49.198;7.064;2024-01-27T08:33:12;21.80;;;8.73;;
7330;SDS011;3706;49.198;7.064;2024-01-27T08:35:44;19.57;;;8.00;;
7330;SDS011;3706;49.198;7.064;2024-01-27T08:38:16;14.40;;;7.63;;
7330;SDS011;3706;49.198;7.064;2024-01-27T08:40:45;17.33;;;7.97;;
7330;SDS011;3706;49.198;7.064;2024-01-27T08:43:13;15.97;;;8.30;;
7330;SDS011;3706;49.198;7.064;2024-01-27T08:45:41;16.47;;;7.50;;
7330;SDS011;3706;49.198;7.064;2024-01-27T08:48:08;14.97;;;6.80;;
7330;SDS011;3706;49.198;7.064;2024-01-27T08:50:36;12.57;;;7.00;;
7330;SDS011;3706;49.198;7.064;2024-01-27T08:53:04;16.60;;;7.70;;
7330;SDS011;3706;49.198;7.064;2024-01-27T08:55:33;13.03;;;6.60;;
7330;SDS011;3706;49.198;7.064;2024-01-27T08:58:05;19.20;;;8.50;;
7330;SDS011;3706;49.198;7.064;2024-01-27T09:00:33;16.47;;;7.90;;
7330;SDS011;3706;49.198;7.064;2024-01-27T09:03:00;19.17;;;7.30;;
7330;SDS011;3706;49.198;7.064;2024-01-27T09:05:28;17.57;;;7.70;;
7330;SDS011;3706;49.198;7.064;2024-01-27T09:07:55;16.40;;;8.80;;
7330;SDS011;3706;49.198;7.064;2024-01-27T09:10:22;18.33;;;8.07;;
7330;SDS011;3706;49.198;7.064;2024-01-27T09:12:51;18.87;;;8.17;;
7330;SDS011;3706;49.198;7.064;2024-01-27T09:15:18;26.87;;;12.13;;
7330;SDS011;3706;49.198;7.064;2024-01-27T09:17:45;33.70;;;15.97;;
7330;SDS011;3706;49.198;7.064;2024-01-27T09:20:13;23.83;;;11.47;;
7330;SDS011;3706;49.198;7.064;2024-01-27T09:22:41;13.87;;;8.97;;
7330;SDS011;3706;49.198;7.064;2024-01-27T09:25:09;16.40;;;7.80;;
7330;SDS011;3706;49.198;7.064;2024-01-27T09:27:37;16.13;;;8.67;;
7330;SDS011;3706;49.198;7.064;2024-01-27T09:30:06;15.43;;;8.27;;
7330;SDS011;3706;49.198;7.064;2024-01-27T09:32:34;14.30;;;7.30;;
7330;SDS011;3706;49.198;7.064;2024-01-27T09:35:01;18.60;;;8.10;;
7330;SDS011;3706;49.198;7.064;2024-01-27T09:37:29;13.97;;;7.20;;
7330;SDS011;3706;49.198;7.064;2024-01-27T09:39:59;16.13;;;7.47;;
7330;SDS011;3706;49.198;7.064;2024-01-27T09:42:27;12.40;;;6.60;;
7330;SDS011;3706;49.198;7.064;2024-01-27T09:44:55;15.87;;;6.07;;
7330;SDS011;3706;49.198;7.064;2024-01-27T09:47:31;11.03;;;6.17;;
7330;SDS011;3706;49.198;7.064;2024-01-27T09:49:59;11.43;;;6.33;;
7330;SDS011;3706;49.198;7.064;2024-01-27T09:52:26;13.47;;;6.20;;
7330;SDS011;3706;49.198;7.064;2024-01-27T09:54:54;15.47;;;5.90;;
7330;SDS011;3706;49.198;7.064;2024-01-27T09:57:21;9.60;;;5.60;;
7330;SDS011;3706;49.198;7.064;2024-01-27T09:59:48;10.27;;;4.63;;
7330;SDS011;3706;49.198;7.064;2024-01-27T10:02:16;14.97;;;5.73;;
7330;SDS011;3706;49.198;7.064;2024-01-27T10:04:47;13.50;;;5.70;;
7330;SDS011;3706;49.198;7.064;2024-01-27T10:07:14;12.63;;;5.30;;
7330;SDS011;3706;49.198;7.064;2024-01-27T10:09:41;9.60;;;4.80;;
7330;SDS011;3706;49.198;7.064;2024-01-27T10:12:09;9.43;;;6.03;;
7330;SDS011;3706;49.198;7.064;2024-01-27T10:14:39;10.67;;;4.97;;
7330;SDS011;3706;49.198;7.064;2024-01-27T10:17:09;10.63;;;5.23;;
7330;SDS011;3706;49.198;7.064;2024-01-27T10:19:37;8.93;;;5.63;;
7330;SDS011;3706;49.198;7.064;2024-01-27T10:22:06;16.27;;;6.60;;
7330;SDS011;3706;49.198;7.064;2024-01-27T10:24:33;11.10;;;6.10;;
7330;SDS011;3706;49.198;7.064;2024-01-27T10:27:01;8.37;;;4.90;;
7330;SDS011;3706;49.198;7.064;2024-01-27T10:29:28;12.20;;;6.17;;
7330;SDS011;3706;49.198;7.064;2024-01-27T10:32:06;9.00;;;5.27;;
7330;SDS011;3706;49.198;7.064;2024-01-27T10:34:34;12.70;;;7.03;;
7330;SDS011;3706;49.198;7.064;2024-01-27T10:37:01;11.60;;;6.67;;
7330;SDS011;3706;49.198;7.064;2024-01-27T10:39:30;9.70;;;6.00;;
7330;SDS011;3706;49.198;7.064;2024-01-27T10:41:57;14.97;;;6.90;;
7330;SDS011;3706;49.198;7.064;2024-01-27T10:44:26;12.00;;;8.10;;
7330;SDS011;3706;49.198;7.064;2024-01-27T10:46:54;11.87;;;7.37;;
7330;SDS011;3706;49.198;7.064;2024-01-27T10:49:28;12.00;;;7.00;;
7330;SDS011;3706;49.198;7.064;2024-01-27T10:52:00;11.30;;;6.93;;
7330;SDS011;3706;49.198;7.064;2024-01-27T10:54:34;10.90;;;6.20;;
7330;SDS011;3706;49.198;7.064;2024-01-27T10:57:03;17.43;;;9.50;;
7330;SDS011;3706;49.198;7.064;2024-01-27T10:59:31;10.37;;;6.97;;
7330;SDS011;3706;49.198;7.064;2024-01-27T11:01:59;13.50;;;6.87;;
7330;SDS011;3706;49.198;7.064;2024-01-27T11:04:27;15.30;;;7.80;;
7330;SDS011;3706;49.198;7.064;2024-01-27T11:06:57;11.90;;;6.77;;
7330;SDS011;3706;49.198;7.064;2024-01-27T11:09:26;11.73;;;6.40;;
7330;SDS011;3706;49.198;7.064;2024-01-27T11:11:59;11.50;;;6.50;;
7330;SDS011;3706;49.198;7.064;2024-01-27T11:14:29;10.53;;;5.17;;
7330;SDS011;3706;49.198;7.064;2024-01-27T11:16:58;10.53;;;5.90;;
7330;SDS011;3706;49.198;7.064;2024-01-27T11:19:25;9.93;;;5.10;;
7330;SDS011;3706;49.198;7.064;2024-01-27T11:22:00;8.33;;;4.17;;
7330;SDS011;3706;49.198;7.064;2024-01-27T11:24:28;15.03;;;4.33;;
7330;SDS011;3706;49.198;7.064;2024-01-27T11:27:04;8.53;;;3.40;;
7330;SDS011;3706;49.198;7.064;2024-01-27T11:29:32;8.73;;;3.83;;
7330;SDS011;3706;49.198;7.064;2024-01-27T11:32:00;10.17;;;4.07;;
7330;SDS011;3706;49.198;7.064;2024-01-27T11:34:28;9.63;;;4.40;;
7330;SDS011;3706;49.198;7.064;2024-01-27T11:37:10;7.93;;;4.00;;
7330;SDS011;3706;49.198;7.064;2024-01-27T11:39:38;6.57;;;2.70;;
7330;SDS011;3706;49.198;7.064;2024-01-27T11:42:08;7.53;;;2.73;;
7330;SDS011;3706;49.198;7.064;2024-01-27T11:44:37;5.63;;;2.07;;
7330;SDS011;3706;49.198;7.064;2024-01-27T11:47:05;4.40;;;1.80;;
7330;SDS011;3706;49.198;7.064;2024-01-27T11:49:40;5.93;;;2.43;;
7330;SDS011;3706;49.198;7.064;2024-01-27T11:52:08;6.63;;;2.87;;
7330;SDS011;3706;49.198;7.064;2024-01-27T11:54:38;8.20;;;2.87;;
7330;SDS011;3706;49.198;7.064;2024-01-27T11:57:07;11.70;;;4.50;;
7330;SDS011;3706;49.198;7.064;2024-01-27T11:59:34;10.87;;;5.50;;
7330;SDS011;3706;49.198;7.064;2024-01-27T12:02:02;7.40;;;4.07;;
7330;SDS011;3706;49.198;7.064;2024-01-27T12:04:29;5.90;;;2.53;;
7330;SDS011;3706;49.198;7.064;2024-01-27T12:06:56;3.87;;;1.60;;
7330;SDS011;3706;49.198;7.064;2024-01-27T12:09:25;4.90;;;1.83;;
7330;SDS011;3706;49.198;7.064;2024-01-27T12:11:52;1.80;;;1.30;;
7330;SDS011;3706;49.198;7.064;2024-01-27T12:14:21;7.53;;;1.67;;
7330;SDS011;3706;49.198;7.064;2024-01-27T12:16:48;6.27;;;2.73;;
7330;SDS011;3706;49.198;7.064;2024-01-27T12:19:29;4.27;;;1.40;;
7330;SDS011;3706;49.198;7.064;2024-01-27T12:21:56;4.40;;;1.63;;
7330;SDS011;3706;49.198;7.064;2024-01-27T12:24:26;4.23;;;1.33;;
7330;SDS011;3706;49.198;7.064;2024-01-27T12:26:54;5.17;;;1.87;;
7330;SDS011;3706;49.198;7.064;2024-01-27T12:29:23;3.77;;;1.70;;
7330;SDS011;3706;49.198;7.064;2024-01-27T12:31:51;7.80;;;2.30;;
7330;SDS011;3706;49.198;7.064;2024-01-27T12:34:19;5.60;;;1.27;;
7330;SDS011;3706;49.198;7.064;2024-01-27T12:36:47;5.97;;;2.37;;
7330;SDS011;3706;49.198;7.064;2024-01-27T12:39:20;7.77;;;2.00;;
7330;SDS011;3706;49.198;7.064;2024-01-27T12:41:52;3.83;;;1.73;;
7330;SDS011;3706;49.198;7.064;2024-01-27T12:44:20;3.87;;;1.93;;
7330;SDS011;3706;49.198;7.064;2024-01-27T12:46:48;5.13;;;1.63;;
7330;SDS011;3706;49.198;7.064;2024-01-27T12:49:16;3.23;;;1.70;;
7330;SDS011;3706;49.198;7.064;2024-01-27T12:51:44;5.57;;;1.77;;
7330;SDS011;3706;49.198;7.064;2024-01-27T12:54:12;5.70;;;2.03;;
7330;SDS011;3706;49.198;7.064;2024-01-27T12:56:45;3.80;;;1.87;;
7330;SDS011;3706;49.198;7.064;2024-01-27T12:59:13;4.53;;;2.17;;
7330;SDS011;3706;49.198;7.064;2024-01-27T13:01:40;3.47;;;1.43;;
7330;SDS011;3706;49.198;7.064;2024-01-27T13:04:09;5.53;;;1.83;;
7330;SDS011;3706;49.198;7.064;2024-01-27T13:06:36;4.00;;;1.90;;
7330;SDS011;3706;49.198;7.064;2024-01-27T13:09:03;3.97;;;1.90;;
7330;SDS011;3706;49.198;7.064;2024-01-27T13:11:36;8.07;;;3.53;;
7330;SDS011;3706;49.198;7.064;2024-01-27T13:14:03;4.87;;;2.50;;
7330;SDS011;3706;49.198;7.064;2024-01-27T13:16:31;4.53;;;2.40;;
7330;SDS011;3706;49.198;7.064;2024-01-27T13:18:58;5.83;;;2.43;;
7330;SDS011;3706;49.198;7.064;2024-01-27T13:21:27;4.60;;;2.30;;
7330;SDS011;3706;49.198;7.064;2024-01-27T13:23:54;4.30;;;2.30;;
7330;SDS011;3706;49.198;7.064;2024-01-27T13:26:21;6.13;;;4.30;;
7330;SDS011;3706;49.198;7.064;2024-01-27T13:28:47;3.50;;;2.30;;
7330;SDS011;3706;49.198;7.064;2024-01-27T13:31:14;6.87;;;2.77;;
7330;SDS011;3706;49.198;7.064;2024-01-27T13:33:42;7.57;;;2.30;;
7330;SDS011;3706;49.198;7.064;2024-01-27T13:36:09;5.73;;;2.60;;
7330;SDS011;3706;49.198;7.064;2024-01-27T13:38:38;6.23;;;2.40;;
7330;SDS011;3706;49.198;7.064;2024-01-27T13:41:05;2.67;;;1.80;;
7330;SDS011;3706;49.198;7.064;2024-01-27T13:43:32;7.60;;;5.80;;
7330;SDS011;3706;49.198;7.064;2024-01-27T13:45:59;4.07;;;2.20;;
7330;SDS011;3706;49.198;7.064;2024-01-27T13:48:26;3.47;;;1.40;;
7330;SDS011;3706;49.198;7.064;2024-01-27T13:50:53;4.07;;;1.90;;
7330;SDS011;3706;49.198;7.064;2024-01-27T13:53:20;4.63;;;2.00;;
7330;SDS011;3706;49.198;7.064;2024-01-27T13:55:49;3.63;;;2.00;;
7330;SDS011;3706;49.198;7.064;2024-01-27T13:58:16;4.07;;;2.00;;
7330;SDS011;3706;49.198;7.064;2024-01-27T14:00:44;5.73;;;2.50;;
7330;SDS011;3706;49.198;7.064;2024-01-27T14:03:11;5.90;;;1.90;;
7330;SDS011;3706;49.198;7.064;2024-01-27T14:05:38;4.43;;;1.87;;
7330;SDS011;3706;49.198;7.064;2024-01-27T14:08:06;3.20;;;1.50;;
7330;SDS011;3706;49.198;7.064;2024-01-27T14:10:35;6.60;;;1.97;;
7330;SDS011;3706;49.198;7.064;2024-01-27T14:13:05;5.93;;;1.77;;
7330;SDS011;3706;49.198;7.064;2024-01-27T14:15:34;3.53;;;1.60;;
7330;SDS011;3706;49.198;7.064;2024-01-27T14:18:02;8.30;;;1.90;;
7330;SDS011;3706;49.198;7.064;2024-01-27T14:20:31;2.60;;;1.50;;
7330;SDS011;3706;49.198;7.064;2024-01-27T14:22:59;3.70;;;1.70;;
7330;SDS011;3706;49.198;7.064;2024-01-27T14:25:27;3.73;;;1.50;;
7330;SDS011;3706;49.198;7.064;2024-01-27T14:27:54;4.57;;;1.60;;
7330;SDS011;3706;49.198;7.064;2024-01-27T14:30:23;3.03;;;1.13;;
7330;SDS011;3706;49.198;7.064;2024-01-27T14:32:50;5.13;;;1.80;;
7330;SDS011;3706;49.198;7.064;2024-01-27T14:35:17;4.77;;;1.90;;
7330;SDS011;3706;49.198;7.064;2024-01-27T14:37:44;2.10;;;1.40;;
7330;SDS011;3706;49.198;7.064;2024-01-27T14:40:14;5.47;;;1.83;;
7330;SDS011;3706;49.198;7.064;2024-01-27T14:42:44;4.17;;;1.60;;
7330;SDS011;3706;49.198;7.064;2024-01-27T14:45:11;2.70;;;1.50;;
7330;SDS011;3706;49.198;7.064;2024-01-27T14:47:40;2.80;;;1.30;;
7330;SDS011;3706;49.198;7.064;2024-01-27T14:50:08;3.23;;;1.40;;
7330;SDS011;3706;49.198;7.064;2024-01-27T14:52:35;2.77;;;1.83;;
7330;SDS011;3706;49.198;7.064;2024-01-27T14:55:03;5.23;;;2.20;;
7330;SDS011;3706;49.198;7.064;2024-01-27T14:57:33;2.83;;;1.70;;
7330;SDS011;3706;49.198;7.064;2024-01-27T15:00:00;4.57;;;1.90;;
7330;SDS011;3706;49.198;7.064;2024-01-27T15:02:28;3.00;;;1.60;;
7330;SDS011;3706;49.198;7.064;2024-01-27T15:04:57;3.30;;;1.53;;
7330;SDS011;3706;49.198;7.064;2024-01-27T15:07:24;4.97;;;2.07;;
7330;SDS011;3706;49.198;7.064;2024-01-27T15:09:54;4.87;;;1.43;;
7330;SDS011;3706;49.198;7.064;2024-01-27T15:12:22;4.47;;;1.50;;
7330;SDS011;3706;49.198;7.064;2024-01-27T15:14:50;2.57;;;1.40;;